Terminal Aerodrome Forecast
Issued by NWS

Home | Current Version | Previous Version | Text Only | Print | Product List | Glossary On
Versions: 1 2 3 4 5 6 7 8 9 10 11 12 13
000
FTUS45 KABQ 031734
TAFROW
TAF
KROW 031734Z 0318/0418 VRB06KT P6SM FEW080 SCT130
     FM032000 19012G18KT P6SM SCT090 BKN150
     FM040300 VRB06KT P6SM SCT100 BKN150
     FM041600 17010KT P6SM SCT080 BKN150=

USA.gov is the U.S. government's official web portal to all federal, state and local government web resources and services.